Sumneytown, Pennsylvania
Current Conditions -  °F | °C
As of 11:15 PM on Monday 22 Dec 2014 (Local Time) from KUKT Reporting Station
Overcast Overcast  
Wind Chill: 39°   Ceiling: 100
Heat Index: 39°   Visibility: 1.7mi
Dew Point: 37°   Wind: 0mph
Humidity: 93%   Direction: NA
Pressure: 30.14"   Gusts: NA
Location:  40.33°N, 75.45°W
Report Text: KUKT 230415Z AUTO 00000KT 1 3/4SM OVC001 04/03 A3014 RMK AO1
Loading
Personal Weather Stations






























Interactive Weather Map New forecast layout! Learn more

10-Day Weather Forecast

Advertisements
Track Severe Weather on mobile